createdAt,value
2022-12-26T00:00:44.569Z,145.41
2022-12-26T00:01:44.510Z,145.41
2022-12-26T00:02:44.592Z,145.41
2022-12-26T00:03:44.719Z,145.41
2022-12-26T00:04:48.372Z,145.41
2022-12-26T00:05:44.540Z,145.41
2022-12-26T00:06:44.526Z,145.41
2022-12-26T00:07:44.524Z,145.41
2022-12-26T00:08:44.557Z,145.41
2022-12-26T00:09:44.518Z,145.41
2022-12-26T00:10:44.533Z,145.41
2022-12-26T00:11:44.524Z,145.41
2022-12-26T00:12:44.543Z,145.41
2022-12-26T00:13:44.556Z,145.41
2022-12-26T00:14:44.527Z,145.41
2022-12-26T00:15:44.519Z,145.41
2022-12-26T00:16:44.599Z,145.41
2022-12-26T00:17:44.552Z,145.41
2022-12-26T00:18:44.519Z,145.41
2022-12-26T00:19:44.541Z,145.41
2022-12-26T00:20:44.536Z,145.41
2022-12-26T00:21:44.535Z,145.41
2022-12-26T00:22:44.533Z,145.41
2022-12-26T00:23:44.526Z,145.41
2022-12-26T00:24:44.532Z,145.41
2022-12-26T00:25:44.530Z,145.41
2022-12-26T00:26:44.566Z,145.41
2022-12-26T00:27:44.532Z,145.41
2022-12-26T00:28:44.560Z,145.41
2022-12-26T00:29:44.520Z,145.41
2022-12-26T00:30:44.537Z,145.41
2022-12-26T00:31:44.583Z,145.41
2022-12-26T00:32:44.524Z,145.41
2022-12-26T00:33:44.545Z,145.41
2022-12-26T00:34:44.555Z,145.41
2022-12-26T00:35:44.543Z,145.41
2022-12-26T00:36:44.526Z,145.41
2022-12-26T00:37:44.549Z,145.41
2022-12-26T00:38:44.527Z,145.41
2022-12-26T00:39:44.547Z,145.41
2022-12-26T00:40:44.526Z,145.41
2022-12-26T00:41:44.527Z,168
2022-12-26T00:42:44.529Z,177.88
2022-12-26T00:43:44.536Z,203.29
2022-12-26T00:44:44.561Z,203.29
2022-12-26T00:45:44.535Z,203.29
2022-12-26T00:46:44.564Z,203.29
2022-12-26T00:47:44.519Z,203.29
2022-12-26T00:48:44.551Z,203.29
2022-12-26T00:50:11.816Z,203.29
2022-12-26T00:50:44.532Z,203.29
2022-12-26T00:51:44.538Z,203.29
2022-12-26T00:52:44.533Z,203.29
2022-12-26T00:53:44.568Z,203.29
2022-12-26T00:54:44.537Z,203.29
2022-12-26T00:55:44.540Z,203.29
2022-12-26T00:56:44.538Z,203.29
2022-12-26T00:57:44.534Z,203.29
2022-12-26T00:58:44.541Z,203.29
2022-12-26T00:59:44.564Z,203.29
2022-12-26T01:00:44.602Z,203.29
2022-12-26T01:01:44.662Z,203.29
2022-12-26T01:02:44.621Z,203.29
2022-12-26T01:03:44.562Z,203.29
2022-12-26T01:04:44.551Z,203.29
2022-12-26T01:05:44.570Z,203.29
2022-12-26T01:06:44.545Z,203.29
2022-12-26T01:08:20.728Z,203.29
2022-12-26T01:08:44.559Z,203.29
2022-12-26T01:09:44.552Z,203.29
2022-12-26T01:10:44.567Z,203.29
2022-12-26T01:11:44.560Z,203.29
2022-12-26T01:12:44.535Z,203.29
2022-12-26T01:13:44.545Z,203.29
2022-12-26T01:14:44.554Z,203.29
2022-12-26T01:15:44.540Z,203.29
2022-12-26T01:16:44.665Z,203.29
2022-12-26T01:17:44.563Z,203.29
2022-12-26T01:18:44.538Z,203.29
2022-12-26T01:19:44.542Z,203.29
2022-12-26T01:20:44.550Z,203.29
2022-12-26T01:21:44.555Z,203.29
2022-12-26T01:22:44.548Z,203.29
2022-12-26T01:23:44.549Z,203.29
2022-12-26T01:24:44.544Z,203.29
2022-12-26T01:26:16.078Z,203.29
2022-12-26T01:26:44.551Z,203.29
2022-12-26T01:27:44.552Z,203.29
2022-12-26T01:28:44.545Z,203.29
2022-12-26T01:29:44.553Z,203.29
2022-12-26T01:30:44.559Z,203.29
2022-12-26T01:31:44.595Z,203.29
2022-12-26T01:32:44.574Z,203.29
2022-12-26T01:33:44.542Z,203.29
2022-12-26T01:34:44.546Z,203.29
2022-12-26T01:35:44.544Z,203.29
2022-12-26T01:36:44.553Z,203.29
2022-12-26T01:37:44.547Z,203.29
2022-12-26T01:38:44.599Z,203.29
2022-12-26T01:39:44.559Z,203.29
2022-12-26T01:40:44.566Z,203.29
2022-12-26T01:41:44.549Z,203.29
2022-12-26T01:42:44.560Z,203.29
2022-12-26T01:43:44.554Z,203.29
2022-12-26T01:44:44.544Z,203.29
2022-12-26T01:45:44.587Z,203.29
2022-12-26T01:46:44.547Z,203.29
2022-12-26T01:47:44.558Z,203.29
2022-12-26T01:48:44.566Z,203.29
2022-12-26T01:49:44.560Z,203.29
2022-12-26T01:50:44.564Z,203.29
2022-12-26T01:51:44.536Z,203.29
2022-12-26T01:52:44.539Z,203.29
2022-12-26T01:53:44.562Z,203.29
2022-12-26T01:54:44.554Z,203.29
2022-12-26T01:55:44.551Z,203.29
2022-12-26T01:56:44.559Z,203.29
2022-12-26T01:57:44.554Z,203.29
2022-12-26T01:58:44.566Z,203.29
2022-12-26T01:59:44.565Z,203.29
2022-12-26T02:00:44.648Z,203.29
2022-12-26T02:01:44.721Z,203.29
2022-12-26T02:02:44.643Z,203.29
2022-12-26T02:03:44.575Z,203.29
2022-12-26T02:04:44.613Z,203.29
2022-12-26T02:05:44.571Z,203.29
2022-12-26T02:06:44.577Z,203.29
2022-12-26T02:07:44.567Z,203.29
2022-12-26T02:08:44.586Z,203.29
2022-12-26T02:09:44.594Z,203.29
2022-12-26T02:10:44.573Z,203.29
2022-12-26T02:11:44.595Z,203.29
2022-12-26T02:12:44.568Z,203.29
2022-12-26T02:13:44.591Z,203.29
2022-12-26T02:14:44.589Z,203.29
2022-12-26T02:15:44.584Z,203.29
2022-12-26T02:16:44.706Z,203.29
2022-12-26T02:17:44.599Z,203.29
2022-12-26T02:18:44.599Z,203.29
2022-12-26T02:19:44.591Z,203.29
2022-12-26T02:20:44.607Z,203.29
2022-12-26T02:21:44.597Z,203.29
2022-12-26T02:22:44.595Z,203.29
2022-12-26T02:23:44.593Z,203.29
2022-12-26T02:24:44.584Z,203.29
2022-12-26T02:25:44.610Z,203.29
2022-12-26T02:26:44.596Z,203.29
2022-12-26T02:27:44.612Z,203.29
2022-12-26T02:28:44.611Z,203.29
2022-12-26T02:29:44.612Z,203.29
2022-12-26T02:30:44.629Z,203.29
2022-12-26T02:31:44.706Z,203.29
2022-12-26T02:32:44.603Z,203.29
2022-12-26T02:33:44.618Z,203.29
2022-12-26T02:34:44.604Z,203.29
2022-12-26T02:35:44.612Z,203.29
2022-12-26T02:36:44.637Z,203.29
2022-12-26T02:37:44.612Z,203.29
2022-12-26T02:38:44.617Z,203.29
2022-12-26T02:39:46.564Z,203.29
2022-12-26T02:40:44.618Z,203.29
2022-12-26T02:41:44.626Z,203.29
2022-12-26T02:42:44.631Z,203.29
2022-12-26T02:43:44.639Z,203.29
2022-12-26T02:44:44.635Z,203.29
2022-12-26T02:45:44.637Z,203.29
2022-12-26T02:46:44.635Z,203.29
2022-12-26T02:47:44.633Z,203.29
2022-12-26T02:48:44.626Z,203.29
2022-12-26T02:49:44.628Z,203.29
2022-12-26T02:50:44.630Z,203.29
2022-12-26T02:51:44.634Z,203.29
2022-12-26T02:52:44.679Z,203.29
2022-12-26T02:53:44.631Z,203.29
2022-12-26T02:54:44.626Z,203.29
2022-12-26T02:55:44.644Z,203.29
2022-12-26T02:56:44.641Z,203.29
2022-12-26T02:57:44.641Z,203.29
2022-12-26T02:58:44.656Z,203.29
2022-12-26T02:59:54.874Z,203.29
2022-12-26T03:00:44.742Z,203.29
2022-12-26T03:01:44.768Z,203.29
2022-12-26T03:02:44.768Z,203.29
2022-12-26T03:03:44.641Z,203.29
2022-12-26T03:04:44.639Z,203.29
2022-12-26T03:05:44.709Z,203.29
2022-12-26T03:06:44.644Z,203.29
2022-12-26T03:07:44.656Z,203.29
2022-12-26T03:08:44.664Z,203.29
2022-12-26T03:09:44.648Z,203.29
2022-12-26T03:10:44.658Z,203.29
2022-12-26T03:11:44.669Z,203.29
2022-12-26T03:12:44.660Z,203.29
2022-12-26T03:13:44.657Z,203.29
2022-12-26T03:14:44.670Z,203.29
2022-12-26T03:15:44.675Z,203.29
2022-12-26T03:16:44.743Z,203.29
2022-12-26T03:17:44.677Z,203.29
2022-12-26T03:18:56.754Z,203.29
2022-12-26T03:19:44.678Z,203.29
2022-12-26T03:20:44.658Z,203.29
2022-12-26T03:21:44.665Z,203.29
2022-12-26T03:22:44.708Z,203.29
2022-12-26T03:23:44.683Z,86.12
2022-12-26T03:24:44.705Z,81.88
2022-12-26T03:25:44.693Z,63.53
2022-12-26T03:26:44.666Z,63.53
2022-12-26T03:27:44.666Z,63.53
2022-12-26T03:28:44.664Z,63.53
2022-12-26T03:29:44.677Z,63.53
2022-12-26T03:30:44.717Z,63.53
2022-12-26T03:31:44.690Z,63.53
2022-12-26T03:32:44.681Z,63.53
2022-12-26T03:33:44.700Z,63.53
2022-12-26T03:34:44.720Z,76.24
2022-12-26T03:35:44.699Z,76.24
2022-12-26T03:36:44.697Z,76.24
2022-12-26T03:37:48.166Z,76.24
2022-12-26T03:38:44.683Z,76.24
2022-12-26T03:39:44.696Z,76.24
2022-12-26T03:40:44.748Z,76.24
2022-12-26T03:41:44.705Z,76.24
2022-12-26T03:42:44.707Z,76.24
2022-12-26T03:43:44.731Z,76.24
2022-12-26T03:44:45.294Z,76.24
2022-12-26T03:45:44.768Z,76.24
2022-12-26T03:46:44.713Z,76.24
2022-12-26T03:47:44.717Z,76.24
2022-12-26T03:48:44.704Z,76.24
2022-12-26T03:49:44.702Z,76.24
2022-12-26T03:50:44.713Z,76.24
2022-12-26T03:51:44.703Z,76.24
2022-12-26T03:52:44.703Z,76.24
2022-12-26T03:53:44.735Z,76.24
2022-12-26T03:54:44.718Z,76.24
2022-12-26T03:55:44.727Z,76.24
2022-12-26T03:56:44.726Z,76.24
2022-12-26T03:57:44.721Z,76.24
2022-12-26T03:58:44.720Z,76.24
2022-12-26T03:59:44.776Z,76.24
2022-12-26T04:00:44.713Z,76.24
2022-12-26T04:01:44.772Z,76.24
2022-12-26T04:02:44.728Z,76.24
2022-12-26T04:03:44.821Z,76.24
2022-12-26T04:04:44.720Z,76.24
2022-12-26T04:05:44.719Z,76.24
2022-12-26T04:06:44.732Z,76.24
2022-12-26T04:07:55.661Z,76.24
2022-12-26T04:08:44.721Z,76.24
2022-12-26T04:09:44.746Z,76.24
2022-12-26T04:10:44.729Z,76.24
2022-12-26T04:11:44.736Z,76.24
2022-12-26T04:12:44.757Z,76.24
2022-12-26T04:13:44.730Z,76.24
2022-12-26T04:14:44.726Z,76.24
2022-12-26T04:15:44.780Z,76.24
2022-12-26T04:16:44.725Z,76.24
2022-12-26T04:17:44.755Z,76.24
2022-12-26T04:18:44.738Z,76.24
2022-12-26T04:19:44.740Z,76.24
2022-12-26T04:20:44.738Z,76.24
2022-12-26T04:21:44.739Z,76.24
2022-12-26T04:22:44.757Z,76.24
2022-12-26T04:23:44.754Z,76.24
2022-12-26T04:24:44.739Z,76.24
2022-12-26T04:25:49.300Z,76.24
2022-12-26T04:26:44.750Z,76.24
2022-12-26T04:27:44.737Z,76.24
2022-12-26T04:28:44.796Z,76.24
2022-12-26T04:29:44.745Z,76.24
2022-12-26T04:30:44.777Z,76.24
2022-12-26T04:31:44.771Z,76.24
2022-12-26T04:32:44.744Z,76.24
2022-12-26T04:33:44.760Z,76.24
2022-12-26T04:34:44.754Z,76.24
2022-12-26T04:35:44.750Z,76.24
2022-12-26T04:36:44.752Z,76.24
2022-12-26T04:37:44.742Z,76.24
2022-12-26T04:38:44.767Z,76.24
2022-12-26T04:39:44.755Z,76.24
2022-12-26T04:40:44.767Z,76.24
2022-12-26T04:41:44.754Z,76.24
2022-12-26T04:42:44.751Z,76.24
2022-12-26T04:43:47.847Z,76.24
2022-12-26T04:44:44.789Z,76.24
2022-12-26T04:45:44.802Z,76.24
2022-12-26T04:46:44.790Z,76.24
2022-12-26T04:47:44.763Z,76.24
2022-12-26T04:48:44.768Z,76.24
2022-12-26T04:49:44.761Z,76.24
2022-12-26T04:50:44.763Z,76.24
2022-12-26T04:51:44.785Z,76.24
2022-12-26T04:52:44.757Z,76.24
2022-12-26T04:53:46.400Z,76.24
2022-12-26T04:54:44.770Z,76.24
2022-12-26T04:55:44.780Z,76.24
2022-12-26T04:56:44.765Z,76.24
2022-12-26T04:57:44.780Z,76.24
2022-12-26T04:58:44.775Z,76.24
2022-12-26T04:59:44.776Z,76.24
2022-12-26T05:00:44.819Z,76.24
2022-12-26T05:01:44.905Z,76.24
2022-12-26T05:02:44.890Z,76.24
2022-12-26T05:03:44.807Z,76.24
2022-12-26T05:04:44.788Z,76.24
2022-12-26T05:05:44.771Z,76.24
2022-12-26T05:06:44.774Z,76.24
2022-12-26T05:07:44.780Z,76.24
2022-12-26T05:08:44.776Z,76.24
2022-12-26T05:09:44.793Z,76.24
2022-12-26T05:10:44.792Z,76.24
2022-12-26T05:11:44.789Z,76.24
2022-12-26T05:12:44.778Z,76.24
2022-12-26T05:13:44.779Z,76.24
2022-12-26T05:14:44.790Z,76.24
2022-12-26T05:15:44.846Z,76.24
2022-12-26T05:16:44.803Z,76.24
2022-12-26T05:17:44.802Z,76.24
2022-12-26T05:18:44.789Z,76.24
2022-12-26T05:19:44.784Z,76.24
2022-12-26T05:20:44.787Z,76.24
2022-12-26T05:21:44.790Z,76.24
2022-12-26T05:22:44.795Z,76.24
2022-12-26T05:23:44.788Z,76.24
2022-12-26T05:24:44.798Z,76.24
2022-12-26T05:25:44.824Z,76.24
2022-12-26T05:26:44.784Z,76.24
2022-12-26T05:27:44.790Z,76.24
2022-12-26T05:28:44.790Z,76.24
2022-12-26T05:29:44.784Z,76.24
2022-12-26T05:30:44.833Z,76.24
2022-12-26T05:31:44.826Z,76.24
2022-12-26T05:32:44.834Z,76.24
2022-12-26T05:33:44.819Z,76.24
2022-12-26T05:34:44.789Z,76.24
2022-12-26T05:35:44.799Z,76.24
2022-12-26T05:36:44.802Z,76.24
2022-12-26T05:37:44.809Z,76.24
2022-12-26T05:38:44.796Z,76.24
2022-12-26T05:39:44.796Z,76.24
2022-12-26T05:40:44.802Z,76.24
2022-12-26T05:41:44.827Z,76.24
2022-12-26T05:42:44.814Z,76.24
2022-12-26T05:43:44.826Z,76.24
2022-12-26T05:44:44.794Z,76.24
2022-12-26T05:45:44.793Z,76.24
2022-12-26T05:46:44.841Z,76.24
2022-12-26T05:47:49.947Z,76.24
2022-12-26T05:48:44.826Z,76.24
2022-12-26T05:49:44.805Z,76.24
2022-12-26T05:50:44.819Z,76.24
2022-12-26T05:51:44.792Z,76.24
2022-12-26T05:52:44.840Z,76.24
2022-12-26T05:53:44.803Z,76.24
2022-12-26T05:54:44.799Z,76.24
2022-12-26T05:55:44.798Z,76.24
2022-12-26T05:56:49.212Z,76.24
2022-12-26T05:57:44.800Z,76.24
2022-12-26T05:58:44.803Z,76.24
2022-12-26T05:59:44.799Z,76.24
2022-12-26T06:00:44.795Z,76.24
2022-12-26T06:01:44.883Z,76.24
2022-12-26T06:02:44.884Z,76.24
2022-12-26T06:03:44.848Z,76.24
2022-12-26T06:04:44.827Z,76.24
2022-12-26T06:05:44.800Z,76.24
2022-12-26T06:06:44.810Z,76.24
2022-12-26T06:07:44.808Z,76.24
2022-12-26T06:08:44.815Z,76.24
2022-12-26T06:09:44.812Z,76.24
2022-12-26T06:10:44.808Z,76.24
2022-12-26T06:11:48.668Z,76.24
2022-12-26T06:12:44.800Z,76.24
2022-12-26T06:13:44.811Z,76.24
2022-12-26T06:14:44.818Z,76.24
2022-12-26T06:15:44.811Z,76.24
2022-12-26T06:16:44.865Z,76.24
2022-12-26T06:17:44.825Z,76.24
2022-12-26T06:18:44.811Z,76.24
2022-12-26T06:19:46.971Z,76.24
2022-12-26T06:20:44.834Z,76.24
2022-12-26T06:21:44.821Z,76.24
2022-12-26T06:22:44.823Z,76.24
2022-12-26T06:23:44.822Z,76.24
2022-12-26T06:24:44.831Z,76.24
2022-12-26T06:25:44.813Z,76.24
2022-12-26T06:26:44.822Z,76.24
2022-12-26T06:27:44.814Z,76.24
2022-12-26T06:28:44.816Z,76.24
2022-12-26T06:29:44.810Z,76.24
2022-12-26T06:30:44.829Z,76.24
2022-12-26T06:31:44.827Z,76.24
2022-12-26T06:32:44.813Z,76.24
2022-12-26T06:33:44.822Z,76.24
2022-12-26T06:34:44.832Z,76.24
2022-12-26T06:35:44.821Z,76.24
2022-12-26T06:36:44.858Z,76.24
2022-12-26T06:37:44.820Z,76.24
2022-12-26T06:38:44.848Z,76.24
2022-12-26T06:39:44.827Z,76.24
2022-12-26T06:40:44.832Z,76.24
2022-12-26T06:41:44.833Z,76.24
2022-12-26T06:42:44.813Z,76.24
2022-12-26T06:43:44.827Z,76.24
2022-12-26T06:44:44.826Z,76.24
2022-12-26T06:45:44.840Z,76.24
2022-12-26T06:46:44.934Z,76.24
2022-12-26T06:47:44.829Z,76.24
2022-12-26T06:48:44.820Z,76.24
2022-12-26T06:49:44.823Z,76.24
2022-12-26T06:50:44.831Z,76.24
2022-12-26T06:51:44.845Z,76.24
2022-12-26T06:52:44.866Z,76.24
2022-12-26T06:53:44.845Z,76.24
2022-12-26T06:54:44.843Z,76.24
2022-12-26T06:55:44.844Z,76.24
2022-12-26T06:56:44.867Z,76.24
2022-12-26T06:57:44.833Z,76.24
2022-12-26T06:58:44.851Z,76.24
2022-12-26T06:59:44.847Z,76.24
2022-12-26T07:00:44.897Z,76.24
2022-12-26T07:01:45.023Z,76.24
2022-12-26T07:02:44.919Z,76.24
2022-12-26T07:03:50.640Z,76.24
2022-12-26T07:04:44.842Z,76.24
2022-12-26T07:05:44.848Z,76.24
2022-12-26T07:06:44.852Z,76.24
2022-12-26T07:07:44.835Z,76.24
2022-12-26T07:08:44.860Z,76.24
2022-12-26T07:09:44.831Z,76.24
2022-12-26T07:10:44.855Z,76.24
2022-12-26T07:11:44.854Z,76.24
2022-12-26T07:12:44.851Z,76.24
2022-12-26T07:13:44.853Z,76.24
2022-12-26T07:14:44.854Z,76.24
2022-12-26T07:15:44.860Z,76.24
2022-12-26T07:16:44.889Z,76.24
2022-12-26T07:17:44.850Z,76.24
2022-12-26T07:18:44.874Z,76.24
2022-12-26T07:19:44.874Z,76.24
2022-12-26T07:20:44.843Z,76.24
2022-12-26T07:21:44.879Z,76.24
2022-12-26T07:22:44.852Z,76.24
2022-12-26T07:23:44.853Z,76.24
2022-12-26T07:24:44.869Z,76.24
2022-12-26T07:25:44.854Z,76.24
2022-12-26T07:26:44.842Z,76.24
2022-12-26T07:27:44.851Z,76.24
2022-12-26T07:28:44.867Z,76.24
2022-12-26T07:29:44.846Z,76.24
2022-12-26T07:30:44.856Z,76.24
2022-12-26T07:31:44.976Z,76.24
2022-12-26T07:32:44.851Z,76.24
2022-12-26T07:33:44.864Z,76.24
2022-12-26T07:34:44.836Z,76.24
2022-12-26T07:35:44.851Z,76.24
2022-12-26T07:36:44.855Z,76.24
2022-12-26T07:37:44.865Z,76.24
2022-12-26T07:38:44.857Z,76.24
2022-12-26T07:39:44.857Z,76.24
2022-12-26T07:40:44.922Z,76.24
2022-12-26T07:41:44.847Z,76.24
2022-12-26T07:42:44.851Z,76.24
2022-12-26T07:43:44.861Z,76.24
2022-12-26T07:44:44.879Z,76.24
2022-12-26T07:45:45.916Z,76.24
2022-12-26T07:46:44.903Z,76.24
2022-12-26T07:47:44.864Z,76.24
2022-12-26T07:48:44.854Z,76.24
2022-12-26T07:49:44.848Z,76.24
2022-12-26T07:50:44.847Z,76.24
2022-12-26T07:51:44.874Z,76.24
2022-12-26T07:52:44.846Z,76.24
2022-12-26T07:53:44.867Z,76.24
2022-12-26T07:54:44.850Z,76.24
2022-12-26T07:55:44.863Z,76.24
2022-12-26T07:56:44.899Z,76.24
2022-12-26T07:57:49.325Z,76.24
2022-12-26T07:58:44.875Z,76.24
2022-12-26T07:59:44.863Z,76.24
2022-12-26T08:00:44.896Z,76.24
2022-12-26T08:01:45.038Z,76.24
2022-12-26T08:02:44.983Z,76.24
2022-12-26T08:03:44.953Z,76.24
2022-12-26T08:04:44.868Z,76.24
2022-12-26T08:05:44.872Z,76.24
2022-12-26T08:06:44.878Z,76.24
2022-12-26T08:07:44.898Z,76.24
2022-12-26T08:08:50.392Z,76.24
2022-12-26T08:09:44.907Z,76.24
2022-12-26T08:10:44.899Z,76.24
2022-12-26T08:11:44.870Z,76.24
2022-12-26T08:12:44.913Z,76.24
2022-12-26T08:13:44.892Z,76.24
2022-12-26T08:14:44.881Z,76.24
2022-12-26T08:15:44.888Z,76.24
2022-12-26T08:16:49.566Z,76.24
2022-12-26T08:17:44.875Z,76.24
2022-12-26T08:18:44.956Z,76.24
2022-12-26T08:19:44.888Z,76.24
2022-12-26T08:20:44.887Z,76.24
2022-12-26T08:21:44.895Z,76.24
2022-12-26T08:22:44.908Z,76.24
2022-12-26T08:23:44.907Z,76.24
2022-12-26T08:24:44.901Z,76.24
2022-12-26T08:25:44.893Z,76.24
2022-12-26T08:26:44.898Z,76.24
2022-12-26T08:27:44.912Z,76.24
2022-12-26T08:28:44.922Z,76.24
2022-12-26T08:29:44.896Z,76.24
2022-12-26T08:30:44.903Z,76.24
2022-12-26T08:31:44.897Z,76.24
2022-12-26T08:32:46.217Z,76.24
2022-12-26T08:33:44.915Z,76.24
2022-12-26T08:34:44.900Z,76.24
2022-12-26T08:35:44.910Z,76.24
2022-12-26T08:36:44.918Z,76.24
2022-12-26T08:37:44.902Z,76.24
2022-12-26T08:38:44.925Z,76.24
2022-12-26T08:39:44.923Z,76.24
2022-12-26T08:40:45.060Z,76.24
2022-12-26T08:41:44.920Z,76.24
2022-12-26T08:43:03.256Z,76.24
2022-12-26T08:44:24.747Z,76.24
2022-12-26T08:44:44.951Z,76.24
2022-12-26T08:45:44.993Z,76.24
2022-12-26T08:46:44.940Z,76.24
2022-12-26T08:47:44.931Z,76.24
2022-12-26T08:48:44.951Z,76.24
2022-12-26T08:49:44.929Z,76.24
2022-12-26T08:50:44.930Z,76.24
2022-12-26T08:51:44.924Z,76.24
2022-12-26T08:52:44.933Z,76.24
2022-12-26T08:53:44.943Z,76.24
2022-12-26T08:54:44.940Z,76.24
2022-12-26T08:55:44.941Z,76.24
2022-12-26T08:56:44.931Z,76.24
2022-12-26T08:57:44.949Z,76.24
2022-12-26T08:58:45.002Z,76.24
2022-12-26T08:59:44.940Z,76.24
2022-12-26T09:00:45.083Z,76.24
2022-12-26T09:01:45.034Z,76.24
2022-12-26T09:02:45.145Z,76.24
2022-12-26T09:03:44.952Z,76.24
2022-12-26T09:04:44.937Z,76.24
2022-12-26T09:05:44.968Z,76.24
2022-12-26T09:06:44.946Z,76.24
2022-12-26T09:07:44.943Z,76.24
2022-12-26T09:08:44.954Z,76.24
2022-12-26T09:09:44.959Z,76.24
2022-12-26T09:10:44.957Z,76.24
2022-12-26T09:11:44.959Z,76.24
2022-12-26T09:12:44.942Z,76.24
2022-12-26T09:13:44.960Z,76.24
2022-12-26T09:14:44.951Z,76.24
2022-12-26T09:15:44.967Z,76.24
2022-12-26T09:16:49.976Z,76.24
2022-12-26T09:17:44.957Z,76.24
2022-12-26T09:18:44.980Z,76.24
2022-12-26T09:19:44.955Z,76.24
2022-12-26T09:20:44.969Z,76.24
2022-12-26T09:21:44.956Z,76.24
2022-12-26T09:22:44.970Z,76.24
2022-12-26T09:23:44.975Z,76.24
2022-12-26T09:24:44.975Z,76.24
2022-12-26T09:25:44.968Z,76.24
2022-12-26T09:26:44.987Z,76.24
2022-12-26T09:27:44.961Z,76.24
2022-12-26T09:28:44.960Z,76.24
2022-12-26T09:29:44.978Z,76.24
2022-12-26T09:30:45.022Z,76.24
2022-12-26T09:31:44.987Z,76.24
2022-12-26T09:32:44.994Z,76.24
2022-12-26T09:33:44.980Z,76.24
2022-12-26T09:34:44.972Z,76.24
2022-12-26T09:35:44.990Z,76.24
2022-12-26T09:36:44.965Z,76.24
2022-12-26T09:37:44.976Z,76.24
2022-12-26T09:38:44.977Z,76.24
2022-12-26T09:39:44.982Z,76.24
2022-12-26T09:40:44.978Z,76.24
2022-12-26T09:41:44.975Z,76.24
2022-12-26T09:42:44.981Z,76.24
2022-12-26T09:43:49.874Z,76.24
2022-12-26T09:44:44.972Z,76.24
2022-12-26T09:45:45.039Z,76.24
2022-12-26T09:46:44.986Z,76.24
2022-12-26T09:47:44.981Z,76.24
2022-12-26T09:48:45.006Z,76.24
2022-12-26T09:49:45.001Z,76.24
2022-12-26T09:50:44.976Z,76.24
2022-12-26T09:51:44.993Z,76.24
2022-12-26T09:52:44.996Z,76.24
2022-12-26T09:53:44.986Z,76.24
2022-12-26T09:54:44.988Z,76.24
2022-12-26T09:55:44.996Z,76.24
2022-12-26T09:57:15.322Z,76.24
2022-12-26T09:57:44.996Z,76.24
2022-12-26T09:58:45.003Z,76.24
2022-12-26T09:59:45.002Z,76.24
2022-12-26T10:00:45.000Z,76.24
2022-12-26T10:01:45.159Z,76.24
2022-12-26T10:02:45.053Z,76.24
2022-12-26T10:03:45.017Z,76.24
2022-12-26T10:04:45.097Z,76.24
2022-12-26T10:05:44.993Z,76.24
2022-12-26T10:06:44.999Z,76.24
2022-12-26T10:07:45.022Z,76.24
2022-12-26T10:08:44.996Z,76.24
2022-12-26T10:09:44.995Z,76.24
2022-12-26T10:10:45.003Z,76.24
2022-12-26T10:11:45.014Z,76.24
2022-12-26T10:12:45.008Z,76.24
2022-12-26T10:13:45.015Z,76.24
2022-12-26T10:14:45.011Z,76.24
2022-12-26T10:15:45.057Z,76.24
2022-12-26T10:16:45.007Z,76.24
2022-12-26T10:17:45.026Z,76.24
2022-12-26T10:18:45.006Z,76.24
2022-12-26T10:19:45.010Z,76.24
2022-12-26T10:20:45.035Z,76.24
2022-12-26T10:21:45.018Z,76.24
2022-12-26T10:22:45.061Z,76.24
2022-12-26T10:23:45.005Z,76.24
2022-12-26T10:24:45.027Z,76.24
2022-12-26T10:25:45.016Z,76.24
2022-12-26T10:26:45.015Z,76.24
2022-12-26T10:27:45.010Z,76.24
2022-12-26T10:28:45.003Z,76.24
2022-12-26T10:29:45.014Z,76.24
2022-12-26T10:30:45.031Z,76.24
2022-12-26T10:31:45.022Z,76.24
2022-12-26T10:32:45.002Z,76.24
2022-12-26T10:33:45.006Z,76.24
2022-12-26T10:34:45.020Z,76.24
2022-12-26T10:35:45.005Z,76.24
2022-12-26T10:36:45.036Z,76.24
2022-12-26T10:37:45.024Z,76.24
2022-12-26T10:38:45.017Z,76.24
2022-12-26T10:39:45.021Z,76.24
2022-12-26T10:40:45.034Z,76.24
2022-12-26T10:41:45.027Z,76.24
2022-12-26T10:42:45.015Z,76.24
2022-12-26T10:43:45.057Z,76.24
2022-12-26T10:44:45.029Z,76.24
2022-12-26T10:45:45.011Z,76.24
2022-12-26T10:46:45.060Z,76.24
2022-12-26T10:47:45.027Z,76.24
2022-12-26T10:48:45.012Z,76.24
2022-12-26T10:49:45.023Z,76.24
2022-12-26T10:50:45.018Z,76.24
2022-12-26T10:51:45.019Z,76.24
2022-12-26T10:52:45.046Z,76.24
2022-12-26T10:53:45.029Z,76.24
2022-12-26T10:54:45.024Z,76.24
2022-12-26T10:55:45.022Z,76.24
2022-12-26T10:56:45.015Z,76.24
2022-12-26T10:57:45.036Z,76.24
2022-12-26T10:58:45.025Z,76.24
2022-12-26T10:59:45.064Z,76.24
2022-12-26T11:00:45.027Z,76.24
2022-12-26T11:01:45.158Z,76.24
2022-12-26T11:02:45.194Z,76.24
2022-12-26T11:03:45.047Z,76.24
2022-12-26T11:05:11.511Z,76.24
2022-12-26T11:06:45.031Z,76.24
2022-12-26T11:07:45.050Z,76.24
2022-12-26T11:08:45.055Z,76.24
2022-12-26T11:09:45.020Z,76.24
2022-12-26T11:10:45.031Z,76.24
2022-12-26T11:11:45.040Z,76.24
2022-12-26T11:12:45.034Z,76.24
2022-12-26T11:13:45.027Z,76.24
2022-12-26T11:14:45.034Z,76.24
2022-12-26T11:15:45.066Z,76.24
2022-12-26T11:16:45.051Z,76.24
2022-12-26T11:17:45.041Z,76.24
2022-12-26T11:18:45.035Z,76.24
2022-12-26T11:19:45.043Z,76.24
2022-12-26T11:20:45.039Z,76.24
2022-12-26T11:21:45.058Z,76.24
2022-12-26T11:22:45.038Z,76.24
2022-12-26T11:23:45.064Z,76.24
2022-12-26T11:24:45.085Z,76.24
2022-12-26T11:25:45.047Z,76.24
2022-12-26T11:26:45.036Z,76.24
2022-12-26T11:27:45.049Z,76.24
2022-12-26T11:28:45.049Z,76.24
2022-12-26T11:29:45.047Z,76.24
2022-12-26T11:30:45.044Z,76.24
2022-12-26T11:31:45.074Z,76.24
2022-12-26T11:32:45.040Z,76.24
2022-12-26T11:33:45.064Z,76.24
2022-12-26T11:34:45.047Z,76.24
2022-12-26T11:35:45.049Z,76.24
2022-12-26T11:36:45.051Z,76.24
2022-12-26T11:37:45.064Z,76.24
2022-12-26T11:38:45.556Z,76.24
2022-12-26T11:39:45.055Z,76.24
2022-12-26T11:40:45.092Z,76.24
2022-12-26T11:41:45.052Z,76.24
2022-12-26T11:42:45.062Z,76.24
2022-12-26T11:43:45.081Z,76.24
2022-12-26T11:44:45.093Z,76.24
2022-12-26T11:45:45.069Z,76.24
2022-12-26T11:46:45.126Z,76.24
2022-12-26T11:47:45.092Z,76.24
2022-12-26T11:48:45.071Z,76.24
2022-12-26T11:49:45.081Z,76.24
2022-12-26T11:50:45.084Z,76.24
2022-12-26T11:51:45.093Z,76.24
2022-12-26T11:52:45.072Z,76.24
2022-12-26T11:53:45.072Z,76.24
2022-12-26T11:54:45.085Z,76.24
2022-12-26T11:55:45.087Z,76.24
2022-12-26T11:56:45.122Z,76.24
2022-12-26T11:57:45.082Z,76.24
2022-12-26T11:58:45.107Z,76.24
2022-12-26T11:59:45.092Z,76.24
2022-12-26T12:00:45.087Z,76.24
2022-12-26T12:01:45.207Z,76.24
2022-12-26T12:02:45.186Z,76.24
2022-12-26T12:03:49.120Z,76.24
2022-12-26T12:04:45.095Z,76.24
2022-12-26T12:05:45.110Z,76.24
2022-12-26T12:06:45.103Z,76.24
2022-12-26T12:07:45.108Z,76.24
2022-12-26T12:08:45.104Z,76.24
2022-12-26T12:09:45.108Z,76.24
2022-12-26T12:10:45.100Z,76.24
2022-12-26T12:11:45.100Z,76.24
2022-12-26T12:12:45.141Z,76.24
2022-12-26T12:13:45.113Z,76.24
2022-12-26T12:14:48.097Z,76.24
2022-12-26T12:15:45.115Z,76.24
2022-12-26T12:16:45.138Z,76.24
2022-12-26T12:17:45.125Z,76.24
2022-12-26T12:18:45.120Z,76.24
2022-12-26T12:19:45.122Z,76.24
2022-12-26T12:20:48.859Z,76.24
2022-12-26T12:21:45.141Z,76.24
2022-12-26T12:22:45.122Z,76.24
2022-12-26T12:23:45.139Z,76.24
2022-12-26T12:24:45.119Z,76.24
2022-12-26T12:25:45.140Z,76.24
2022-12-26T12:26:48.472Z,76.24
2022-12-26T12:27:45.145Z,76.24
2022-12-26T12:28:45.349Z,76.24
2022-12-26T12:29:45.140Z,76.24
2022-12-26T12:30:45.142Z,76.24
2022-12-26T12:31:45.255Z,76.24
2022-12-26T12:32:45.141Z,76.24
2022-12-26T12:33:45.138Z,76.24
2022-12-26T12:34:45.149Z,76.24
2022-12-26T12:35:45.162Z,76.24
2022-12-26T12:36:45.163Z,76.24
2022-12-26T12:37:45.151Z,76.24
2022-12-26T12:38:45.154Z,76.24
2022-12-26T12:39:45.160Z,76.24
2022-12-26T12:40:45.150Z,76.24
2022-12-26T12:41:45.155Z,194.82
2022-12-26T12:42:45.171Z,194.82
2022-12-26T12:43:45.163Z,153.88
2022-12-26T12:44:45.180Z,169.41
2022-12-26T12:45:45.209Z,169.41
2022-12-26T12:46:45.164Z,169.41
2022-12-26T12:47:45.165Z,169.41